createdAt,value
2018-06-21T00:01:28.823Z,99.90
2018-06-21T00:03:56.036Z,99.90
2018-06-21T00:06:23.261Z,99.90
2018-06-21T00:08:50.513Z,99.90
2018-06-21T00:11:17.741Z,99.90
2018-06-21T00:13:44.954Z,99.90
2018-06-21T00:16:12.183Z,99.90
2018-06-21T00:18:39.420Z,99.90
2018-06-21T00:21:06.653Z,99.90
2018-06-21T00:23:33.885Z,99.90
2018-06-21T00:26:01.120Z,99.90
2018-06-21T00:28:28.360Z,99.90
2018-06-21T00:30:55.590Z,99.90
2018-06-21T00:35:50.028Z,99.90
2018-06-21T00:38:17.242Z,99.90
2018-06-21T00:40:44.453Z,99.90
2018-06-21T00:43:11.689Z,99.90
2018-06-21T00:45:38.908Z,99.90
2018-06-21T00:48:06.128Z,99.90
2018-06-21T00:50:33.355Z,99.90
2018-06-21T00:53:00.596Z,99.90
2018-06-21T00:55:39.292Z,99.90
2018-06-21T00:58:06.577Z,99.90
2018-06-21T01:00:33.794Z,99.90
2018-06-21T01:03:01.025Z,99.90
2018-06-21T01:05:28.253Z,99.90
2018-06-21T01:07:55.483Z,99.90
2018-06-21T01:10:22.705Z,99.90
2018-06-21T01:12:49.929Z,99.90
2018-06-21T01:15:17.161Z,99.90
2018-06-21T01:17:44.390Z,99.90
2018-06-21T01:20:11.626Z,99.90
2018-06-21T01:22:38.882Z,99.90
2018-06-21T01:25:06.118Z,99.90
2018-06-21T01:27:33.340Z,99.90
2018-06-21T01:30:00.561Z,99.90
2018-06-21T01:32:27.799Z,99.90
2018-06-21T01:34:55.028Z,99.90
2018-06-21T01:37:22.244Z,99.90
2018-06-21T01:39:49.465Z,99.90
2018-06-21T01:42:16.714Z,99.90
2018-06-21T01:44:43.928Z,99.90
2018-06-21T01:47:11.156Z,99.90
2018-06-21T01:49:38.386Z,99.90
2018-06-21T01:52:05.655Z,99.90
2018-06-21T01:54:32.889Z,99.90
2018-06-21T01:57:00.101Z,99.90
2018-06-21T01:59:27.317Z,99.90
2018-06-21T02:01:54.505Z,99.90
2018-06-21T02:06:48.946Z,99.90
2018-06-21T02:11:43.373Z,99.90
2018-06-21T02:14:10.570Z,99.90
2018-06-21T02:16:37.776Z,99.90
2018-06-21T02:19:04.986Z,99.90
2018-06-21T02:21:32.190Z,99.90
2018-06-21T02:23:59.403Z,99.90
2018-06-21T02:26:26.645Z,99.90
2018-06-21T02:28:53.868Z,99.90
2018-06-21T02:31:21.055Z,99.90
2018-06-21T02:33:48.269Z,99.90
2018-06-21T02:36:15.471Z,99.90
2018-06-21T02:38:42.686Z,99.90
2018-06-21T02:41:09.889Z,99.90
2018-06-21T02:43:37.108Z,99.90
2018-06-21T02:46:04.541Z,99.90
2018-06-21T02:48:31.734Z,99.90
2018-06-21T02:50:58.950Z,99.90
2018-06-21T02:53:26.165Z,99.90
2018-06-21T02:55:53.378Z,99.90
2018-06-21T02:58:20.581Z,99.90
2018-06-21T03:00:47.827Z,99.90
2018-06-21T03:03:15.017Z,99.90
2018-06-21T03:05:42.259Z,99.90
2018-06-21T03:08:09.445Z,99.90
2018-06-21T03:10:36.657Z,99.90
2018-06-21T03:13:05.219Z,99.90
2018-06-21T03:15:32.426Z,99.90
2018-06-21T03:17:59.633Z,99.90
2018-06-21T03:20:26.877Z,99.90
2018-06-21T03:22:54.111Z,99.90
2018-06-21T03:25:21.368Z,99.90
2018-06-21T03:27:48.696Z,99.90
2018-06-21T03:30:21.621Z,99.90
2018-06-21T03:32:48.994Z,99.90
2018-06-21T03:35:18.672Z,99.90
2018-06-21T03:37:45.872Z,99.90
2018-06-21T03:40:13.069Z,99.90
2018-06-21T03:42:40.329Z,99.90
2018-06-21T03:45:07.553Z,99.90
2018-06-21T03:47:34.749Z,99.90
2018-06-21T03:50:01.947Z,99.90
2018-06-21T03:52:29.231Z,99.90
2018-06-21T03:54:56.440Z,99.90
2018-06-21T03:57:23.648Z,99.90
2018-06-21T03:59:50.845Z,99.90
2018-06-21T04:02:18.073Z,99.90
2018-06-21T04:04:45.283Z,99.90
2018-06-21T04:07:12.482Z,99.90
2018-06-21T04:09:39.675Z,99.90
2018-06-21T04:12:06.877Z,99.90
2018-06-21T04:14:34.059Z,99.90
2018-06-21T04:17:01.351Z,99.90
2018-06-21T04:19:28.589Z,99.90
2018-06-21T04:21:55.792Z,99.90
2018-06-21T04:24:22.985Z,99.90
2018-06-21T04:26:50.185Z,99.90
2018-06-21T04:29:17.407Z,99.90
2018-06-21T04:31:44.615Z,99.90
2018-06-21T04:36:39.065Z,99.90
2018-06-21T04:39:06.790Z,99.90
2018-06-21T04:41:34.053Z,99.90
2018-06-21T04:44:01.259Z,99.90
2018-06-21T04:46:28.450Z,99.90
2018-06-21T04:48:55.644Z,99.90
2018-06-21T04:51:22.832Z,99.90
2018-06-21T04:53:50.026Z,99.90
2018-06-21T04:56:17.213Z,99.90
2018-06-21T04:58:44.404Z,99.90
2018-06-21T05:01:11.960Z,99.90
2018-06-21T05:03:39.154Z,99.90
2018-06-21T05:06:06.344Z,99.90
2018-06-21T05:08:33.538Z,99.90
2018-06-21T05:11:00.729Z,99.90
2018-06-21T05:13:27.944Z,99.90
2018-06-21T05:15:55.348Z,99.90
2018-06-21T05:18:22.609Z,99.90
2018-06-21T05:20:49.777Z,99.90
2018-06-21T05:23:16.997Z,99.90
2018-06-21T05:25:44.190Z,99.90
2018-06-21T05:28:11.406Z,99.90
2018-06-21T05:30:38.590Z,99.90
2018-06-21T05:33:06.072Z,99.90
2018-06-21T05:35:33.360Z,99.90
2018-06-21T05:38:00.576Z,99.90
2018-06-21T05:40:32.800Z,99.90
2018-06-21T05:43:00.892Z,99.90
2018-06-21T05:45:28.106Z,99.90
2018-06-21T05:47:55.948Z,99.90
2018-06-21T05:50:23.138Z,99.90
2018-06-21T05:52:50.462Z,99.90
2018-06-21T05:55:17.669Z,99.90
2018-06-21T05:57:44.849Z,99.90
2018-06-21T06:00:12.162Z,99.90
2018-06-21T06:02:39.720Z,99.90
2018-06-21T06:05:06.923Z,99.90
2018-06-21T06:07:34.115Z,99.90
2018-06-21T06:10:01.381Z,99.90
2018-06-21T06:14:57.931Z,99.90
2018-06-21T06:17:25.126Z,99.90
2018-06-21T06:19:52.317Z,99.90
2018-06-21T06:22:20.498Z,99.90
2018-06-21T06:24:47.694Z,99.90
2018-06-21T06:27:14.885Z,99.90
2018-06-21T06:29:42.080Z,99.90
2018-06-21T06:32:09.264Z,99.90
2018-06-21T06:34:36.477Z,99.90
2018-06-21T06:37:03.709Z,99.90
2018-06-21T06:41:58.121Z,99.90
2018-06-21T06:44:25.317Z,99.90
2018-06-21T06:46:52.509Z,99.90
2018-06-21T06:49:19.709Z,99.90
2018-06-21T06:51:46.918Z,99.90
2018-06-21T06:54:14.155Z,99.90
2018-06-21T06:56:41.357Z,99.90
2018-06-21T06:59:08.562Z,99.90
2018-06-21T07:01:35.757Z,99.90
2018-06-21T07:04:03.073Z,99.90
2018-06-21T07:06:30.269Z,99.90
2018-06-21T07:11:26.105Z,99.90
2018-06-21T07:13:53.296Z,96.50
2018-06-21T07:16:20.493Z,95.80
2018-06-21T07:18:47.697Z,96.10
2018-06-21T07:21:14.897Z,94.70
2018-06-21T07:23:42.316Z,93.00
2018-06-21T07:26:09.509Z,93.60
2018-06-21T07:31:03.912Z,92.70
2018-06-21T07:33:31.147Z,92.10
2018-06-21T07:35:58.350Z,90.10
2018-06-21T07:38:25.537Z,89.60
2018-06-21T07:40:52.726Z,86.60
2018-06-21T07:43:19.942Z,88.80
2018-06-21T07:45:47.144Z,85.00
2018-06-21T07:48:14.349Z,85.90
2018-06-21T07:50:41.548Z,84.50
2018-06-21T07:53:08.989Z,82.20
2018-06-21T07:55:36.177Z,80.10
2018-06-21T07:58:03.396Z,81.90
2018-06-21T08:00:30.589Z,81.30
2018-06-21T08:02:57.780Z,80.20
2018-06-21T08:05:25.035Z,82.70
2018-06-21T08:07:52.226Z,82.50
2018-06-21T08:10:19.420Z,77.00
2018-06-21T08:12:46.620Z,76.70
2018-06-21T08:15:13.824Z,75.90
2018-06-21T08:17:41.052Z,75.60
2018-06-21T08:20:08.305Z,75.00
2018-06-21T08:22:35.497Z,72.50
2018-06-21T08:25:02.754Z,72.30
2018-06-21T08:27:29.965Z,72.30
2018-06-21T08:29:57.166Z,72.70
2018-06-21T08:32:24.370Z,73.90
2018-06-21T08:34:51.556Z,73.00
2018-06-21T08:37:18.749Z,70.40
2018-06-21T08:39:46.444Z,68.60
2018-06-21T08:42:13.628Z,66.80
2018-06-21T08:44:40.832Z,68.30
2018-06-21T08:47:08.026Z,68.00
2018-06-21T08:49:35.252Z,67.70
2018-06-21T08:52:02.489Z,66.60
2018-06-21T08:54:29.776Z,68.10
2018-06-21T08:56:57.013Z,67.60
2018-06-21T08:59:24.222Z,66.80
2018-06-21T09:01:51.411Z,70.30
2018-06-21T09:04:18.609Z,67.80
2018-06-21T09:06:45.794Z,67.70
2018-06-21T09:09:13.008Z,64.70
2018-06-21T09:11:40.190Z,65.90
2018-06-21T09:14:07.410Z,66.20
2018-06-21T09:16:34.618Z,66.80
2018-06-21T09:19:01.814Z,68.10
2018-06-21T09:21:29.008Z,68.00
2018-06-21T09:23:56.201Z,67.00
2018-06-21T09:26:23.405Z,65.20
2018-06-21T09:28:50.601Z,65.30
2018-06-21T09:31:17.800Z,67.30
2018-06-21T09:33:44.996Z,63.40
2018-06-21T09:36:12.193Z,64.20
2018-06-21T09:38:45.145Z,63.60
2018-06-21T09:41:18.097Z,63.50
2018-06-21T09:44:03.824Z,62.80
2018-06-21T09:46:33.874Z,63.80
2018-06-21T09:48:52.050Z,67.40
2018-06-21T09:51:19.708Z,66.10
2018-06-21T09:53:46.921Z,65.30
2018-06-21T09:56:14.233Z,67.00
2018-06-21T09:58:41.421Z,67.60
2018-06-21T10:01:08.629Z,68.70
2018-06-21T10:03:35.825Z,70.20
2018-06-21T10:06:03.041Z,67.80
2018-06-21T10:08:30.233Z,68.10
2018-06-21T10:10:57.419Z,66.40
2018-06-21T10:13:24.783Z,66.70
2018-06-21T10:15:52.160Z,66.00
2018-06-21T10:18:19.389Z,66.30
2018-06-21T10:20:46.610Z,67.80
2018-06-21T10:23:13.942Z,68.00
2018-06-21T10:25:41.148Z,68.90
2018-06-21T10:28:08.334Z,71.20
2018-06-21T10:30:35.562Z,71.40
2018-06-21T10:33:02.750Z,66.40
2018-06-21T10:35:29.946Z,67.20
2018-06-21T10:37:57.137Z,65.80
2018-06-21T10:40:24.340Z,67.10
2018-06-21T10:42:51.550Z,65.70
2018-06-21T10:45:18.757Z,63.90
2018-06-21T10:47:45.971Z,63.70
2018-06-21T10:50:13.184Z,64.90
2018-06-21T10:52:40.370Z,64.20
2018-06-21T10:55:07.560Z,65.30
2018-06-21T10:57:34.771Z,67.50
2018-06-21T11:00:01.969Z,65.80
2018-06-21T11:02:29.186Z,64.40
2018-06-21T11:04:56.376Z,65.30
2018-06-21T11:07:23.570Z,66.30
2018-06-21T11:09:50.948Z,67.30
2018-06-21T11:12:18.133Z,69.90
2018-06-21T11:14:45.324Z,67.10
2018-06-21T11:17:12.534Z,66.30
2018-06-21T11:19:39.728Z,64.40
2018-06-21T11:22:06.934Z,65.90
2018-06-21T11:24:34.117Z,64.90
2018-06-21T11:27:01.301Z,65.40
2018-06-21T11:29:28.521Z,66.90
2018-06-21T11:31:55.733Z,67.80
2018-06-21T11:34:23.049Z,70.00
2018-06-21T11:36:50.234Z,69.90
2018-06-21T11:39:17.452Z,67.70
2018-06-21T11:41:44.669Z,67.50
2018-06-21T11:44:11.859Z,65.40
2018-06-21T11:46:39.125Z,65.70
2018-06-21T11:49:06.373Z,62.10
2018-06-21T11:51:33.553Z,64.50
2018-06-21T11:54:00.836Z,65.20
2018-06-21T11:56:28.022Z,65.90
2018-06-21T11:58:55.229Z,64.30
2018-06-21T12:01:22.449Z,62.10
2018-06-21T12:03:49.657Z,61.10
2018-06-21T12:06:16.852Z,64.30
2018-06-21T12:08:44.061Z,64.00
2018-06-21T12:11:11.261Z,67.40
2018-06-21T12:13:38.556Z,66.50
2018-06-21T12:16:05.759Z,62.30
2018-06-21T12:18:32.957Z,61.30
2018-06-21T12:21:00.152Z,63.50
2018-06-21T12:23:27.347Z,66.30
2018-06-21T12:25:54.543Z,66.20
2018-06-21T12:28:21.765Z,68.70
2018-06-21T12:30:48.952Z,68.70
2018-06-21T12:33:16.137Z,67.20
2018-06-21T12:35:43.429Z,68.10
2018-06-21T12:38:10.638Z,66.60
2018-06-21T12:40:37.832Z,63.50
2018-06-21T12:43:05.052Z,62.30
2018-06-21T12:45:32.241Z,63.20
2018-06-21T12:47:59.426Z,64.80
2018-06-21T12:50:26.630Z,64.50
2018-06-21T12:52:53.817Z,64.60
2018-06-21T12:55:21.079Z,63.90
2018-06-21T12:57:48.294Z,65.00
2018-06-21T13:00:15.725Z,66.50
2018-06-21T13:02:42.929Z,63.20
2018-06-21T13:05:10.157Z,60.40
2018-06-21T13:07:37.354Z,60.60
2018-06-21T13:10:16.355Z,61.90
2018-06-21T13:13:01.068Z,64.70
2018-06-21T13:15:28.290Z,68.30
2018-06-21T13:17:55.465Z,69.60
2018-06-21T13:20:22.669Z,72.80
2018-06-21T13:22:49.869Z,73.60
2018-06-21T13:25:17.078Z,74.20
2018-06-21T13:27:44.268Z,72.30
2018-06-21T13:30:11.504Z,71.70
2018-06-21T13:32:38.694Z,71.70
2018-06-21T13:35:06.366Z,72.00
2018-06-21T13:37:33.566Z,70.90
2018-06-21T13:40:00.787Z,73.40
2018-06-21T13:42:28.496Z,74.20
2018-06-21T13:44:55.692Z,73.90
2018-06-21T13:49:50.124Z,74.10
2018-06-21T13:52:17.339Z,73.60
2018-06-21T13:54:44.562Z,71.20
2018-06-21T13:57:11.750Z,68.80
2018-06-21T13:59:38.998Z,68.10
2018-06-21T14:02:06.388Z,70.60
2018-06-21T14:04:33.577Z,74.10
2018-06-21T14:07:00.791Z,73.60
2018-06-21T14:09:27.980Z,75.20
2018-06-21T14:11:55.191Z,76.70
2018-06-21T14:14:22.716Z,77.40
2018-06-21T14:16:49.924Z,78.90
2018-06-21T14:19:17.202Z,79.10
2018-06-21T14:21:44.378Z,80.30
2018-06-21T14:24:12.704Z,80.60
2018-06-21T14:26:40.282Z,81.10
2018-06-21T14:29:07.505Z,82.00
2018-06-21T14:31:34.733Z,83.40
2018-06-21T14:34:01.913Z,84.40
2018-06-21T14:36:29.438Z,87.70
2018-06-21T14:38:56.936Z,89.60
2018-06-21T14:41:24.381Z,90.90
2018-06-21T14:43:51.574Z,92.00
2018-06-21T14:46:18.761Z,92.50
2018-06-21T14:48:46.012Z,92.20
2018-06-21T14:51:13.193Z,91.90
2018-06-21T14:53:40.395Z,91.10
2018-06-21T14:56:07.621Z,90.00
2018-06-21T14:58:34.817Z,87.10
2018-06-21T15:01:02.027Z,83.80
2018-06-21T15:03:29.357Z,85.20
2018-06-21T15:05:56.553Z,85.30
2018-06-21T15:08:23.753Z,83.20
2018-06-21T15:10:50.954Z,84.40
2018-06-21T15:13:18.150Z,84.30
2018-06-21T15:15:45.348Z,83.80
2018-06-21T15:18:12.559Z,84.80
2018-06-21T15:20:39.751Z,85.40
2018-06-21T15:23:06.982Z,86.80
2018-06-21T15:25:34.202Z,86.20
2018-06-21T15:28:01.600Z,86.90
2018-06-21T15:30:28.814Z,89.70
2018-06-21T15:32:56.018Z,90.40
2018-06-21T15:35:23.214Z,90.30
2018-06-21T15:37:50.541Z,90.40
2018-06-21T15:40:17.912Z,91.10
2018-06-21T15:42:45.109Z,92.00
2018-06-21T15:45:12.449Z,92.60
2018-06-21T15:47:39.645Z,92.70
2018-06-21T15:50:06.906Z,93.40
2018-06-21T15:52:34.097Z,94.80
2018-06-21T15:55:01.301Z,94.40
2018-06-21T15:57:28.561Z,94.00
2018-06-21T16:04:50.205Z,94.60
2018-06-21T16:07:17.404Z,95.70
2018-06-21T16:09:44.614Z,96.50
2018-06-21T16:12:11.824Z,97.50
2018-06-21T16:14:39.025Z,99.20
2018-06-21T16:17:06.336Z,99.90
2018-06-21T16:19:33.583Z,99.90
2018-06-21T16:22:00.941Z,99.90
2018-06-21T16:24:28.149Z,99.90
2018-06-21T16:26:55.340Z,99.90
2018-06-21T16:31:49.746Z,99.90
2018-06-21T16:34:17.092Z,99.90
2018-06-21T16:36:44.507Z,99.90
2018-06-21T16:39:11.756Z,99.90
2018-06-21T16:41:39.359Z,99.90
2018-06-21T16:44:06.509Z,99.90
2018-06-21T16:46:33.889Z,99.90
2018-06-21T16:49:01.098Z,99.90
2018-06-21T16:51:28.683Z,99.90
2018-06-21T16:53:55.888Z,99.90
2018-06-21T16:56:23.474Z,99.90
2018-06-21T16:58:50.672Z,99.90
2018-06-21T17:01:17.941Z,99.90
2018-06-21T17:03:45.150Z,99.90
2018-06-21T17:06:12.417Z,99.90
2018-06-21T17:08:39.640Z,99.90
2018-06-21T17:11:06.892Z,99.90
2018-06-21T17:13:34.109Z,99.90
2018-06-21T17:16:01.378Z,99.90
2018-06-21T17:18:29.505Z,99.90
2018-06-21T17:20:56.705Z,99.90
2018-06-21T17:23:23.916Z,99.90
2018-06-21T17:25:51.166Z,99.90
2018-06-21T17:28:18.389Z,99.90
2018-06-21T17:30:45.735Z,99.90
2018-06-21T17:33:12.992Z,99.90
2018-06-21T17:35:40.221Z,99.20
2018-06-21T17:38:07.443Z,98.40
2018-06-21T17:40:34.739Z,97.10
2018-06-21T17:43:01.952Z,96.20
2018-06-21T17:45:29.358Z,95.40
2018-06-21T17:47:56.568Z,94.40
2018-06-21T17:50:23.801Z,94.30
2018-06-21T17:52:51.240Z,93.30
2018-06-21T17:57:45.746Z,92.00
2018-06-21T18:00:12.976Z,92.40
2018-06-21T18:02:40.428Z,92.00
2018-06-21T18:05:07.730Z,93.00
2018-06-21T18:07:35.021Z,92.20
2018-06-21T18:10:02.342Z,92.60
2018-06-21T18:12:29.556Z,92.80
2018-06-21T18:14:56.874Z,92.60
2018-06-21T18:17:24.173Z,92.20
2018-06-21T18:19:51.444Z,91.90
2018-06-21T18:22:18.712Z,92.40
2018-06-21T18:24:45.930Z,92.70
2018-06-21T18:27:13.197Z,92.00
2018-06-21T18:29:40.600Z,91.20
2018-06-21T18:32:07.853Z,90.70
2018-06-21T18:34:35.065Z,89.60
2018-06-21T18:37:02.328Z,88.80
2018-06-21T18:39:29.585Z,87.10
2018-06-21T18:41:56.813Z,84.10
2018-06-21T18:44:24.042Z,83.00
2018-06-21T18:46:51.286Z,81.50
2018-06-21T18:49:18.506Z,81.60
2018-06-21T18:51:45.729Z,81.40
2018-06-21T18:54:12.940Z,81.00
2018-06-21T18:56:40.373Z,79.10
2018-06-21T18:59:07.609Z,80.70
2018-06-21T19:01:35.003Z,78.30
2018-06-21T19:04:02.259Z,78.20
2018-06-21T19:06:35.373Z,77.50
2018-06-21T19:09:08.476Z,76.50
2018-06-21T19:11:41.583Z,77.10
2018-06-21T19:14:08.859Z,75.80
2018-06-21T19:16:36.087Z,74.90
2018-06-21T19:19:03.307Z,74.80
2018-06-21T19:21:30.552Z,75.10
2018-06-21T19:23:57.757Z,74.40
2018-06-21T19:26:25.192Z,74.40
2018-06-21T19:28:52.410Z,74.80
2018-06-21T19:31:19.658Z,75.40
2018-06-21T19:33:46.859Z,76.80
2018-06-21T19:36:14.120Z,76.00
2018-06-21T19:38:41.325Z,76.80
2018-06-21T19:41:08.540Z,77.50
2018-06-21T19:43:35.754Z,78.20
2018-06-21T19:46:02.968Z,78.40
2018-06-21T19:48:30.172Z,77.80
2018-06-21T19:50:57.393Z,77.30
2018-06-21T19:53:24.587Z,76.50
2018-06-21T19:55:51.792Z,76.30
2018-06-21T19:58:18.998Z,76.60
2018-06-21T20:00:46.202Z,77.00
2018-06-21T20:03:13.431Z,75.70
2018-06-21T20:05:40.707Z,76.20
2018-06-21T20:08:21.629Z,75.40
2018-06-21T20:10:53.421Z,75.90
2018-06-21T20:13:20.630Z,75.50
2018-06-21T20:15:53.007Z,75.90
2018-06-21T20:18:21.147Z,76.30
2018-06-21T20:20:48.420Z,76.40
2018-06-21T20:23:16.035Z,76.70
2018-06-21T20:25:43.216Z,76.00
2018-06-21T20:28:10.570Z,76.60
2018-06-21T20:30:37.765Z,76.70
2018-06-21T20:33:05.300Z,76.40
2018-06-21T20:35:32.501Z,76.70
2018-06-21T20:37:59.697Z,77.30
2018-06-21T20:40:26.921Z,77.20
2018-06-21T20:42:54.125Z,78.20
2018-06-21T20:45:21.321Z,78.00
2018-06-21T20:47:48.528Z,77.30
2018-06-21T20:50:15.725Z,77.50
2018-06-21T20:52:42.930Z,77.70
2018-06-21T20:55:10.134Z,77.70
2018-06-21T20:57:37.422Z,78.80
2018-06-21T21:00:04.633Z,79.20
2018-06-21T21:02:31.842Z,80.00
2018-06-21T21:05:09.374Z,79.90
2018-06-21T21:07:36.631Z,80.00
2018-06-21T21:10:05.743Z,80.50
2018-06-21T21:12:32.924Z,80.50
2018-06-21T21:15:00.264Z,81.40
2018-06-21T21:17:27.473Z,81.70
2018-06-21T21:19:54.668Z,82.10
2018-06-21T21:22:21.857Z,83.10
2018-06-21T21:24:49.589Z,82.30
2018-06-21T21:27:16.795Z,82.80
2018-06-21T21:29:43.998Z,84.00
2018-06-21T21:32:11.193Z,84.40
2018-06-21T21:34:38.397Z,84.30
2018-06-21T21:37:05.593Z,85.10
2018-06-21T21:39:32.892Z,85.70
2018-06-21T21:42:00.054Z,85.00
2018-06-21T21:44:27.256Z,86.40
2018-06-21T21:49:21.654Z,88.00
2018-06-21T21:51:48.866Z,87.80
2018-06-21T21:54:16.068Z,89.00
2018-06-21T21:56:43.266Z,88.90
2018-06-21T21:59:10.456Z,89.30
2018-06-21T22:01:37.654Z,88.90
2018-06-21T22:04:04.895Z,90.10
2018-06-21T22:06:32.081Z,89.30
2018-06-21T22:08:59.280Z,90.20
2018-06-21T22:13:59.530Z,91.40
2018-06-21T22:16:26.723Z,92.00
2018-06-21T22:18:53.938Z,92.60
2018-06-21T22:21:21.137Z,93.70
2018-06-21T22:23:48.336Z,94.20
2018-06-21T22:26:15.543Z,95.20
2018-06-21T22:28:42.741Z,94.60
2018-06-21T22:31:09.933Z,95.00
2018-06-21T22:33:37.133Z,95.20
2018-06-21T22:36:04.436Z,95.20
2018-06-21T22:38:31.629Z,95.60
2018-06-21T22:40:58.828Z,95.40
2018-06-21T22:43:26.049Z,95.60
2018-06-21T22:45:53.253Z,95.70
2018-06-21T22:48:20.441Z,95.80
2018-06-21T22:50:47.669Z,95.70
2018-06-21T22:53:14.852Z,95.70
2018-06-21T22:55:42.049Z,96.20
2018-06-21T22:58:09.244Z,96.00
2018-06-21T23:00:36.449Z,96.80
2018-06-21T23:03:03.707Z,97.20
2018-06-21T23:05:30.956Z,97.90
2018-06-21T23:07:58.109Z,98.50
2018-06-21T23:10:25.333Z,99.00
2018-06-21T23:12:52.549Z,98.90
2018-06-21T23:15:19.766Z,99.30
2018-06-21T23:17:46.956Z,99.70
2018-06-21T23:20:14.176Z,99.80
2018-06-21T23:22:41.372Z,99.90
2018-06-21T23:25:08.575Z,99.90
2018-06-21T23:27:35.752Z,99.90
2018-06-21T23:30:03.286Z,99.90
2018-06-21T23:32:30.508Z,99.90
2018-06-21T23:34:57.705Z,99.90
2018-06-21T23:37:24.909Z,99.90
2018-06-21T23:39:52.107Z,99.90
2018-06-21T23:42:19.312Z,99.90
2018-06-21T23:44:46.596Z,99.90
2018-06-21T23:47:13.880Z,99.90
2018-06-21T23:52:08.273Z,99.90
2018-06-21T23:54:35.476Z,99.90
2018-06-21T23:57:02.707Z,99.90
2018-06-21T23:59:29.904Z,99.90
